createdAt,value
2022-10-06T00:00:28.984Z,9.2
2022-10-06T00:05:17.215Z,10.0
2022-10-06T00:10:23.349Z,9.3
2022-10-06T00:15:29.150Z,10.3
2022-10-06T00:20:18.154Z,9.4
2022-10-06T00:25:24.239Z,10.4
2022-10-06T00:30:30.227Z,9.7
2022-10-06T00:35:19.662Z,9.9
2022-10-06T00:40:25.341Z,8.3
2022-10-06T00:45:31.419Z,8.3
2022-10-06T00:50:20.486Z,8.9
2022-10-06T00:55:26.523Z,7.6
2022-10-06T01:00:33.595Z,7.3
2022-10-06T01:05:21.366Z,8.2
2022-10-06T01:10:27.445Z,8.0
2022-10-06T01:15:16.637Z,9.2
2022-10-06T01:20:22.739Z,9.8
2022-10-06T01:25:28.943Z,7.8
2022-10-06T01:30:17.941Z,8.2
2022-10-06T01:35:23.952Z,9.2
2022-10-06T01:40:29.997Z,9.4
2022-10-06T01:45:19.057Z,8.3
2022-10-06T01:50:25.101Z,8.7
2022-10-06T01:55:31.151Z,8.8
2022-10-06T02:00:20.218Z,10.2
2022-10-06T02:05:26.196Z,10.4
2022-10-06T02:10:32.159Z,9.1
2022-10-06T02:15:21.328Z,11.2
2022-10-06T02:20:27.445Z,11.7
2022-10-06T02:25:16.529Z,13.0
2022-10-06T02:30:22.550Z,9.2
2022-10-06T02:35:28.629Z,8.6
2022-10-06T02:40:17.918Z,9.5
2022-10-06T02:45:23.832Z,9.5
2022-10-06T02:50:29.814Z,9.7
2022-10-06T02:55:19.813Z,9.0
2022-10-06T03:00:24.936Z,10.9
2022-10-06T03:05:30.325Z,11.2
2022-10-06T03:10:19.269Z,9.0
2022-10-06T03:15:25.040Z,11.9
2022-10-06T03:20:33.920Z,10.7
2022-10-06T03:25:20.200Z,9.3
2022-10-06T03:30:26.239Z,8.5
2022-10-06T03:35:32.336Z,9.1
2022-10-06T03:40:21.424Z,9.1
2022-10-06T03:45:27.485Z,9.4
2022-10-06T03:50:16.450Z,9.2
2022-10-06T03:55:22.531Z,9.9
2022-10-06T04:00:28.594Z,9.5
2022-10-06T04:05:17.481Z,9.1
2022-10-06T04:10:23.554Z,10.2
2022-10-06T04:15:29.765Z,11.0
2022-10-06T04:20:18.832Z,10.3
2022-10-06T04:25:24.953Z,9.1
2022-10-06T04:30:30.947Z,9.1
2022-10-06T04:35:20.038Z,9.9
2022-10-06T04:40:26.236Z,13.1
2022-10-06T04:45:32.295Z,14.4
2022-10-06T04:50:21.165Z,12.3
2022-10-06T04:55:27.264Z,12.6
2022-10-06T05:00:33.304Z,20.3
2022-10-06T05:05:22.193Z,12.4
2022-10-06T05:10:31.334Z,12.9
2022-10-06T05:15:17.452Z,13.5
2022-10-06T05:20:23.540Z,11.7
2022-10-06T05:25:29.595Z,16.7
2022-10-06T05:30:18.603Z,12.1
2022-10-06T05:35:24.723Z,12.5
2022-10-06T05:40:30.918Z,11.6
2022-10-06T05:45:19.833Z,12.0
2022-10-06T05:50:25.943Z,18.9
2022-10-06T05:55:31.925Z,10.0
2022-10-06T06:00:20.991Z,11.4
2022-10-06T06:05:27.038Z,12.8
2022-10-06T06:10:33.167Z,11.6
2022-10-06T06:15:21.203Z,10.1
2022-10-06T06:20:27.311Z,9.2
2022-10-06T06:25:16.340Z,10.2
2022-10-06T06:30:22.382Z,12.6
2022-10-06T06:35:28.455Z,11.9
2022-10-06T06:40:17.521Z,13.5
2022-10-06T06:45:23.479Z,9.9
2022-10-06T06:50:29.538Z,9.7
2022-10-06T06:55:18.597Z,15.0
2022-10-06T07:00:24.814Z,16.3
2022-10-06T07:05:30.562Z,18.6
2022-10-06T07:10:19.696Z,18.0
2022-10-06T07:25:25.077Z,30.2
2022-10-06T07:30:25.941Z,16.7
2022-10-06T07:35:32.263Z,25.0
2022-10-06T07:40:21.049Z,37.6
2022-10-06T07:45:27.153Z,50.8
2022-10-06T07:50:16.633Z,38.2
2022-10-06T07:55:23.082Z,25.8
2022-10-06T08:00:28.385Z,20.1
2022-10-06T08:05:17.572Z,17.8
2022-10-06T08:10:23.678Z,20.0
2022-10-06T08:15:29.725Z,22.2
2022-10-06T08:20:20.830Z,21.5
2022-10-06T08:25:24.390Z,25.5
2022-10-06T08:30:30.220Z,24.7
2022-10-06T08:35:19.238Z,13.9
2022-10-06T08:40:25.318Z,14.5
2022-10-06T08:45:33.974Z,11.4
2022-10-06T08:50:20.476Z,10.7
2022-10-06T08:55:26.541Z,10.4
2022-10-06T09:00:32.559Z,10.0
2022-10-06T09:05:23.625Z,8.9
2022-10-06T09:10:26.988Z,8.9
2022-10-06T09:15:15.976Z,9.2
2022-10-06T09:20:22.100Z,11.8
2022-10-06T09:25:29.027Z,7.9
2022-10-06T09:30:17.978Z,7.8
2022-10-06T09:35:23.824Z,6.7
2022-10-06T09:40:29.983Z,8.9
2022-10-06T09:45:19.041Z,6.8
2022-10-06T09:50:25.045Z,6.8
2022-10-06T09:55:31.140Z,8.9
2022-10-06T10:00:20.183Z,8.3
2022-10-06T10:05:25.533Z,7.3
2022-10-06T10:10:31.592Z,6.7
2022-10-06T10:15:20.593Z,6.4
2022-10-06T10:20:26.657Z,6.6
2022-10-06T10:25:32.726Z,8.1
2022-10-06T10:30:21.435Z,11.9
2022-10-06T10:35:27.545Z,10.1
2022-10-06T10:40:16.765Z,10.2
2022-10-06T10:45:22.725Z,5.7
2022-10-06T10:50:28.740Z,6.1
2022-10-06T10:55:17.781Z,5.8
2022-10-06T11:00:23.841Z,5.6
2022-10-06T11:05:29.971Z,6.4
2022-10-06T11:10:18.272Z,5.8
2022-10-06T11:15:24.306Z,4.9
2022-10-06T11:20:30.349Z,6.4
2022-10-06T11:25:19.130Z,5.1
2022-10-06T11:30:25.318Z,5.2
2022-10-06T11:35:31.245Z,4.8
2022-10-06T11:40:20.320Z,6.1
2022-10-06T11:45:26.579Z,6.3
2022-10-06T11:50:32.371Z,5.7
2022-10-06T11:55:21.408Z,6.9
2022-10-06T12:00:27.499Z,5.7
2022-10-06T12:05:54.417Z,7.1
2022-10-06T12:10:21.927Z,4.6
2022-10-06T12:17:11.515Z,6.7
2022-10-06T12:20:17.021Z,6.4
2022-10-06T12:25:23.825Z,6.4
2022-10-06T12:30:30.199Z,6.3
2022-10-06T12:35:18.857Z,5.6
2022-10-06T12:40:24.982Z,5.0
2022-10-06T12:45:31.041Z,6.4
2022-10-06T12:50:20.021Z,5.9
2022-10-06T12:55:26.104Z,7.7
2022-10-06T13:00:32.184Z,6.1
2022-10-06T13:05:20.475Z,5.3
2022-10-06T13:10:26.576Z,5.7
2022-10-06T13:15:33.036Z,5.4
2022-10-06T13:20:21.654Z,7.5
2022-10-06T13:25:27.514Z,7.6
2022-10-06T13:30:16.528Z,8.3
2022-10-06T13:35:22.684Z,5.5
2022-10-06T13:40:43.398Z,6.0
2022-10-06T13:45:17.683Z,6.1
2022-10-06T13:50:23.851Z,6.9
2022-10-06T13:55:29.842Z,6.4
2022-10-06T14:00:19.008Z,10.2
2022-10-06T14:05:24.336Z,5.9
2022-10-06T14:10:30.432Z,5.8
2022-10-06T14:15:19.313Z,7.0
2022-10-06T14:20:25.387Z,6.8
2022-10-06T14:25:31.471Z,5.7
2022-10-06T14:30:20.544Z,6.9
2022-10-06T14:35:26.609Z,7.8
2022-10-06T14:40:32.671Z,6.8
2022-10-06T14:45:21.662Z,7.5
2022-10-06T14:50:27.716Z,8.2
2022-10-06T14:55:16.827Z,6.8
2022-10-06T15:00:23.010Z,4.8
2022-10-06T15:05:28.235Z,7.3
2022-10-06T15:10:17.235Z,6.2
2022-10-06T15:15:23.325Z,7.7
2022-10-06T15:20:29.352Z,17.8
2022-10-06T15:25:18.139Z,10.3
2022-10-06T15:30:24.377Z,15.7
2022-10-06T15:35:30.344Z,8.8
2022-10-06T15:40:19.433Z,6.1
2022-10-06T15:45:25.356Z,6.5
2022-10-06T15:50:31.456Z,7.0
2022-10-06T15:55:20.596Z,7.7
2022-10-06T16:00:29.761Z,6.2
2022-10-06T16:05:32.059Z,6.8
2022-10-06T16:10:20.986Z,8.4
2022-10-06T16:15:26.975Z,6.1
2022-10-06T16:20:16.136Z,7.0
2022-10-06T16:25:21.959Z,7.2
2022-10-06T16:30:27.966Z,7.5
2022-10-06T16:35:18.423Z,7.8
2022-10-06T16:40:23.214Z,7.5
2022-10-06T16:45:29.122Z,7.4
2022-10-06T16:50:18.082Z,23.0
2022-10-06T16:55:24.209Z,30.1
2022-10-06T17:00:30.360Z,9.6
2022-10-06T17:05:19.560Z,7.4
2022-10-06T17:10:25.692Z,9.9
2022-10-06T17:15:33.680Z,8.4
2022-10-06T17:20:20.741Z,7.9
2022-10-06T17:25:26.680Z,6.9
2022-10-06T17:30:32.550Z,7.8
2022-10-06T17:35:21.555Z,6.3
2022-10-06T17:40:27.801Z,8.8
2022-10-06T17:45:21.057Z,7.3
2022-10-06T17:50:22.767Z,7.6
2022-10-06T17:55:28.822Z,10.2
2022-10-06T18:00:18.675Z,9.2
2022-10-06T18:05:23.273Z,7.3
2022-10-06T18:10:29.321Z,6.9
2022-10-06T18:15:18.283Z,7.3
2022-10-06T18:20:24.345Z,9.0
2022-10-06T18:25:30.161Z,16.7
2022-10-06T18:30:19.154Z,10.1
2022-10-06T18:36:16.143Z,5.9
2022-10-06T18:40:31.475Z,9.0
2022-10-06T18:45:20.412Z,7.7
2022-10-06T18:50:26.417Z,7.0
2022-10-06T18:55:32.542Z,8.1
2022-10-06T19:00:21.560Z,6.4
2022-10-06T19:05:26.944Z,6.0
2022-10-06T19:10:16.048Z,7.1
2022-10-06T19:15:22.042Z,6.9
2022-10-06T19:20:28.071Z,5.7
2022-10-06T19:25:17.857Z,7.8
2022-10-06T19:30:23.836Z,10.6
2022-10-06T19:35:30.060Z,8.5
2022-10-06T19:40:18.964Z,9.5
2022-10-06T19:45:25.334Z,11.3
2022-10-06T19:50:31.098Z,7.9
2022-10-06T19:55:20.150Z,11.9
2022-10-06T20:00:26.244Z,16.7
2022-10-06T20:05:31.905Z,23.3
2022-10-06T20:10:20.563Z,11.9
2022-10-06T20:15:26.662Z,8.4
2022-10-06T20:20:33.211Z,17.5
2022-10-06T20:25:21.442Z,24.2
2022-10-06T20:30:27.538Z,11.2
2022-10-06T20:35:16.543Z,12.2
2022-10-06T20:40:22.637Z,15.1
2022-10-06T20:45:28.826Z,11.5
2022-10-06T20:50:18.106Z,12.1
2022-10-06T20:55:27.168Z,7.2
2022-10-06T21:00:29.889Z,6.1
2022-10-06T21:05:18.191Z,6.7
2022-10-06T21:10:25.074Z,7.9
2022-10-06T21:15:30.348Z,7.1
2022-10-06T21:20:19.441Z,6.4
2022-10-06T21:25:25.115Z,8.0
2022-10-06T21:30:31.231Z,8.3
2022-10-06T21:35:20.295Z,7.1
2022-10-06T21:40:26.563Z,6.6
2022-10-06T21:45:33.240Z,6.5
2022-10-06T21:50:21.414Z,7.1
2022-10-06T21:55:27.493Z,13.8
2022-10-06T22:00:16.573Z,8.3
2022-10-06T22:05:21.988Z,7.1
2022-10-06T22:10:27.952Z,6.5
2022-10-06T22:15:16.962Z,8.0
2022-10-06T22:20:23.068Z,6.1
2022-10-06T22:25:29.790Z,8.8
2022-10-06T22:30:18.882Z,7.7
2022-10-06T22:35:24.957Z,6.1
2022-10-06T22:40:31.102Z,8.0
2022-10-06T22:45:19.976Z,13.8
2022-10-06T22:50:26.294Z,7.5
2022-10-06T22:55:32.221Z,10.9
2022-10-06T23:00:21.285Z,10.0
2022-10-06T23:05:26.482Z,9.9
2022-10-06T23:10:32.853Z,8.1
2022-10-06T23:15:21.566Z,8.3
2022-10-06T23:20:27.652Z,7.9
2022-10-06T23:25:16.290Z,8.2
2022-10-06T23:30:22.362Z,8.6
2022-10-06T23:35:28.419Z,7.7
2022-10-06T23:40:17.531Z,7.3
2022-10-06T23:45:23.690Z,8.2
2022-10-06T23:50:29.737Z,5.3
2022-10-06T23:55:18.683Z,6.5
